Time;durP1;ratioP1;P1;durP2;ratioP2;P2;SDS_P1;SDS_P2;PMS_P1;PMS_P2;Temp;Humidity;BMP_temperature;BMP_pressure;BME280_temperature;BME280_humidity;BME280_pressure;Samples;Min_cycle;Max_cycle;Signal;HPM_P1;HPM_P2
2023/10/03 00:00:34;;;;;;;9.63;4.13;;;;;;;;;;5057833;28;20371;-81
2023/10/03 00:03:52;;;;;;;10.85;4.95;;;;;;;;;;5057163;28;20096;-81
2023/10/03 00:06:18;;;;;;;9.23;4.03;;;;;;;;;;5053378;28;20025;-79
2023/10/03 00:08:45;;;;;;;10.15;3.83;;;;;;;;;;5048451;28;20037;-79
2023/10/03 00:11:22;;;;;;;8.30;4.15;;;;;;;;;;5054775;28;20032;-80
2023/10/03 00:13:49;;;;;;;6.90;4.10;;;;;;;;;;5064967;28;20095;-81
2023/10/03 00:16:15;;;;;;;8.15;4.13;;;;;;;;;;5057401;28;20031;-81
2023/10/03 00:18:40;;;;;;;10.02;4.63;;;;;;;;;;5074827;28;20033;-80
2023/10/03 00:21:05;;;;;;;9.68;4.30;;;;;;;;;;5054816;28;20048;-79
2023/10/03 00:23:32;;;;;;;7.55;4.18;;;;;;;;;;5064352;28;20399;-79
2023/10/03 00:25:59;;;;;;;8.80;4.28;;;;;;;;;;5064472;28;20032;-79
2023/10/03 00:28:26;;;;;;;10.52;3.95;;;;;;;;;;5054608;28;20187;-79
2023/10/03 00:30:52;;;;;;;10.35;4.13;;;;;;;;;;5065965;28;20087;-79
2023/10/03 00:33:18;;;;;;;10.15;4.55;;;;;;;;;;5063573;28;20098;-79
2023/10/03 00:35:43;;;;;;;9.73;4.50;;;;;;;;;;5057072;28;20028;-79
2023/10/03 00:38:13;;;;;;;12.30;4.25;;;;;;;;;;5058500;28;20048;-79
2023/10/03 00:40:40;;;;;;;8.52;4.32;;;;;;;;;;5049245;28;20210;-87
2023/10/03 00:43:07;;;;;;;8.98;3.92;;;;;;;;;;5064233;28;20032;-86
2023/10/03 00:45:33;;;;;;;9.52;4.35;;;;;;;;;;5067193;28;20020;-87
2023/10/03 00:48:06;;;;;;;8.90;4.30;;;;;;;;;;5060416;28;20073;-77
2023/10/03 00:50:32;;;;;;;9.43;4.15;;;;;;;;;;5049699;28;20024;-85
2023/10/03 00:53:08;;;;;;;10.88;4.38;;;;;;;;;;5049562;28;20093;-78
2023/10/03 00:55:34;;;;;;;9.88;4.50;;;;;;;;;;5051556;28;20013;-86
2023/10/03 00:58:07;;;;;;;8.73;4.70;;;;;;;;;;5063449;28;20273;-79
2023/10/03 01:00:45;;;;;;;8.38;4.18;;;;;;;;;;5053457;28;20032;-84
2023/10/03 01:03:36;;;;;;;6.10;3.92;;;;;;;;;;5057617;28;20088;-85
2023/10/03 01:06:05;;;;;;;8.90;4.25;;;;;;;;;;5055874;28;20084;-78
2023/10/03 01:08:32;;;;;;;6.75;4.10;;;;;;;;;;5064051;28;20032;-86
2023/10/03 01:11:00;;;;;;;6.55;4.10;;;;;;;;;;5062313;28;20028;-79
2023/10/03 01:13:26;;;;;;;8.88;4.38;;;;;;;;;;5057485;28;20308;-83
2023/10/03 01:15:53;;;;;;;9.45;4.70;;;;;;;;;;5064649;28;20332;-79
2023/10/03 01:18:20;;;;;;;11.52;4.40;;;;;;;;;;5061695;28;20059;-84
2023/10/03 01:20:50;;;;;;;8.88;4.22;;;;;;;;;;5065162;28;20042;-85
2023/10/03 01:23:16;;;;;;;7.43;4.43;;;;;;;;;;5057478;28;20025;-79
2023/10/03 01:25:44;;;;;;;11.88;4.20;;;;;;;;;;5070605;28;20052;-87
2023/10/03 01:28:12;;;;;;;11.05;4.50;;;;;;;;;;5060689;28;20464;-78
2023/10/03 01:30:40;;;;;;;9.63;4.20;;;;;;;;;;5055195;28;20032;-87
2023/10/03 01:33:07;;;;;;;9.35;4.38;;;;;;;;;;5060449;28;20090;-86
2023/10/03 01:35:33;;;;;;;10.68;4.25;;;;;;;;;;5068254;28;20020;-85
2023/10/03 01:37:58;;;;;;;10.07;4.15;;;;;;;;;;5065257;28;20031;-79
2023/10/03 01:40:24;;;;;;;7.45;4.13;;;;;;;;;;5061739;28;20032;-84
2023/10/03 01:42:49;;;;;;;9.98;4.57;;;;;;;;;;5067527;28;20020;-85
2023/10/03 01:45:24;;;;;;;11.30;4.63;;;;;;;;;;5068949;28;20032;-85
2023/10/03 01:47:51;;;;;;;8.57;4.50;;;;;;;;;;5059060;28;20051;-78
2023/10/03 01:50:21;;;;;;;10.73;4.80;;;;;;;;;;5057648;28;20063;-79
2023/10/03 01:52:48;;;;;;;7.93;4.55;;;;;;;;;;5061577;28;20028;-78
2023/10/03 01:55:17;;;;;;;9.98;4.70;;;;;;;;;;5052559;28;20134;-78
2023/10/03 01:57:53;;;;;;;10.60;4.65;;;;;;;;;;5063496;28;20058;-87
2023/10/03 02:00:25;;;;;;;9.65;4.80;;;;;;;;;;5065135;28;20036;-87
2023/10/03 02:03:13;;;;;;;10.57;4.90;;;;;;;;;;5071560;28;20332;-78
2023/10/03 02:05:42;;;;;;;11.45;4.93;;;;;;;;;;5060805;28;20020;-78
2023/10/03 02:08:17;;;;;;;13.25;5.28;;;;;;;;;;5052118;28;20024;-85
2023/10/03 02:10:48;;;;;;;14.45;5.53;;;;;;;;;;5057303;28;20057;-86
2023/10/03 02:13:17;;;;;;;12.70;5.03;;;;;;;;;;5062696;28;20029;-85
2023/10/03 02:15:51;;;;;;;10.80;5.10;;;;;;;;;;5067426;28;20024;-87
2023/10/03 02:18:18;;;;;;;10.43;5.32;;;;;;;;;;5056422;28;20028;-78
2023/10/03 02:20:52;;;;;;;9.13;5.13;;;;;;;;;;5073322;28;20020;-87
2023/10/03 02:23:23;;;;;;;10.13;5.65;;;;;;;;;;5063529;28;20025;-78
2023/10/03 02:25:49;;;;;;;17.02;5.90;;;;;;;;;;5061177;28;20036;-80
2023/10/03 02:28:16;;;;;;;13.88;5.72;;;;;;;;;;5049989;28;20025;-85
2023/10/03 02:30:47;;;;;;;15.57;6.30;;;;;;;;;;5069009;28;20039;-84
2023/10/03 02:33:17;;;;;;;11.95;6.32;;;;;;;;;;5058769;28;20037;-77
2023/10/03 02:35:50;;;;;;;11.88;6.20;;;;;;;;;;5065612;28;20035;-86
2023/10/03 02:38:29;;;;;;;11.20;6.13;;;;;;;;;;5063096;28;20516;-86
2023/10/03 02:40:59;;;;;;;11.40;6.18;;;;;;;;;;5062172;28;20028;-77
2023/10/03 02:43:26;;;;;;;12.38;6.38;;;;;;;;;;5061797;28;20020;-87
2023/10/03 02:45:52;;;;;;;10.95;6.18;;;;;;;;;;5067721;28;20059;-79
2023/10/03 02:48:20;;;;;;;13.75;6.28;;;;;;;;;;5072549;28;20048;-82
2023/10/03 02:50:47;;;;;;;13.68;6.00;;;;;;;;;;5061263;28;20033;-77
2023/10/03 02:53:19;;;;;;;10.63;6.32;;;;;;;;;;5065156;28;20020;-82
2023/10/03 02:55:45;;;;;;;12.73;6.20;;;;;;;;;;5077965;28;20068;-86
2023/10/03 02:58:13;;;;;;;13.82;6.38;;;;;;;;;;5051956;28;20079;-80
2023/10/03 03:00:39;;;;;;;13.95;6.30;;;;;;;;;;5063380;28;20058;-78
2023/10/03 03:03:11;;;;;;;10.13;6.05;;;;;;;;;;5060402;28;20055;-78
2023/10/03 03:05:37;;;;;;;13.60;5.90;;;;;;;;;;5057668;28;20108;-78
2023/10/03 03:08:29;;;;;;;12.32;6.40;;;;;;;;;;5055497;28;20060;-78
2023/10/03 03:10:57;;;;;;;10.60;6.07;;;;;;;;;;5063791;28;20344;-79
2023/10/03 03:13:33;;;;;;;9.63;5.88;;;;;;;;;;5066769;28;20034;-79
2023/10/03 03:16:00;;;;;;;15.68;6.45;;;;;;;;;;5061295;28;20025;-79
2023/10/03 03:18:40;;;;;;;12.45;5.90;;;;;;;;;;5058876;28;20055;-78
2023/10/03 03:21:10;;;;;;;15.63;6.13;;;;;;;;;;5058923;28;20041;-79
2023/10/03 03:23:36;;;;;;;9.73;6.15;;;;;;;;;;5060836;28;20024;-79
2023/10/03 03:28:38;;;;;;;11.75;5.78;;;;;;;;;;5052708;28;20088;-79
2023/10/03 03:31:09;;;;;;;10.27;5.95;;;;;;;;;;5048032;28;20459;-79
2023/10/03 03:33:35;;;;;;;12.82;5.95;;;;;;;;;;5058890;28;20020;-80
2023/10/03 03:36:01;;;;;;;11.27;6.30;;;;;;;;;;5061654;28;20036;-79
2023/10/03 03:38:27;;;;;;;13.75;6.15;;;;;;;;;;5058772;28;20082;-80
2023/10/03 03:40:59;;;;;;;13.80;6.18;;;;;;;;;;5060683;28;20093;-79
2023/10/03 03:43:25;;;;;;;12.07;5.97;;;;;;;;;;5059480;28;20047;-79
2023/10/03 03:45:52;;;;;;;9.35;5.88;;;;;;;;;;5059882;28;20343;-79
2023/10/03 03:48:21;;;;;;;9.98;6.00;;;;;;;;;;5057976;28;20456;-79
2023/10/03 03:50:49;;;;;;;9.18;5.88;;;;;;;;;;5053164;28;20020;-79
2023/10/03 03:53:14;;;;;;;11.45;5.80;;;;;;;;;;5061927;28;20012;-80
2023/10/03 03:55:42;;;;;;;11.75;6.10;;;;;;;;;;5061283;28;20256;-79
2023/10/03 03:58:14;;;;;;;10.63;5.70;;;;;;;;;;5054690;28;20020;-82
2023/10/03 04:00:44;;;;;;;9.98;5.45;;;;;;;;;;5045650;28;20269;-82
2023/10/03 04:03:13;;;;;;;8.88;5.60;;;;;;;;;;5063322;28;20028;-83
2023/10/03 04:05:39;;;;;;;10.10;5.55;;;;;;;;;;5062424;28;20258;-82
2023/10/03 04:08:04;;;;;;;11.18;5.78;;;;;;;;;;5061037;28;20050;-78
2023/10/03 04:10:30;;;;;;;12.00;5.47;;;;;;;;;;5052811;28;20025;-83
2023/10/03 04:12:56;;;;;;;7.80;4.90;;;;;;;;;;5067614;28;20305;-78
2023/10/03 04:15:23;;;;;;;11.60;5.10;;;;;;;;;;5061824;28;20047;-81
2023/10/03 04:17:49;;;;;;;12.05;5.13;;;;;;;;;;5062605;28;20093;-80
2023/10/03 04:22:47;;;;;;;7.68;4.60;;;;;;;;;;5064920;28;20025;-83
2023/10/03 04:25:19;;;;;;;7.72;4.80;;;;;;;;;;5058609;28;20347;-82
2023/10/03 04:27:48;;;;;;;9.63;4.80;;;;;;;;;;5063538;28;20269;-77
2023/10/03 04:30:15;;;;;;;7.85;4.40;;;;;;;;;;5058872;28;20028;-79
2023/10/03 04:32:42;;;;;;;9.80;4.57;;;;;;;;;;5052018;28;20029;-78
2023/10/03 04:35:13;;;;;;;10.55;4.50;;;;;;;;;;5057945;28;20048;-79
2023/10/03 04:37:41;;;;;;;10.85;4.40;;;;;;;;;;5062432;28;20020;-78
2023/10/03 04:40:12;;;;;;;7.60;4.50;;;;;;;;;;5059098;28;20315;-78
2023/10/03 04:42:41;;;;;;;9.70;4.47;;;;;;;;;;5057317;28;20031;-79
2023/10/03 04:45:10;;;;;;;9.30;4.38;;;;;;;;;;5053721;28;20145;-78
2023/10/03 04:47:41;;;;;;;6.97;4.65;;;;;;;;;;5056799;28;20477;-78
2023/10/03 04:50:07;;;;;;;7.45;4.78;;;;;;;;;;5061022;28;20396;-77
2023/10/03 04:52:32;;;;;;;14.82;4.75;;;;;;;;;;5051997;28;20031;-79
2023/10/03 04:54:58;;;;;;;11.77;4.93;;;;;;;;;;5056629;28;20091;-78
2023/10/03 04:57:27;;;;;;;8.23;4.55;;;;;;;;;;5058899;28;20029;-79
2023/10/03 04:59:53;;;;;;;8.95;4.97;;;;;;;;;;5056158;28;20071;-78
2023/10/03 05:02:19;;;;;;;8.60;4.90;;;;;;;;;;5058997;28;20040;-82
2023/10/03 05:04:44;;;;;;;7.75;4.40;;;;;;;;;;5071961;28;20047;-79
2023/10/03 05:07:10;;;;;;;8.65;4.70;;;;;;;;;;5054697;28;20095;-79
2023/10/03 05:09:35;;;;;;;10.68;4.25;;;;;;;;;;5065153;28;20601;-83
2023/10/03 05:12:04;;;;;;;8.13;4.50;;;;;;;;;;5054354;28;21644;-78
2023/10/03 05:14:30;;;;;;;8.68;4.20;;;;;;;;;;5061639;28;20020;-79
2023/10/03 05:16:58;;;;;;;8.65;4.40;;;;;;;;;;5072803;28;20101;-78
2023/10/03 05:19:24;;;;;;;8.55;4.22;;;;;;;;;;5080478;28;20024;-82
2023/10/03 05:21:49;;;;;;;7.43;4.40;;;;;;;;;;5063837;28;20043;-83
2023/10/03 05:24:15;;;;;;;8.10;4.25;;;;;;;;;;5060067;28;20079;-80
2023/10/03 05:26:41;;;;;;;9.70;4.57;;;;;;;;;;5060787;28;20262;-77
2023/10/03 05:29:07;;;;;;;8.68;4.60;;;;;;;;;;5050083;28;20028;-82
2023/10/03 05:31:34;;;;;;;8.75;4.90;;;;;;;;;;5061961;28;20035;-78
2023/10/03 05:34:00;;;;;;;11.23;4.90;;;;;;;;;;5068592;28;20032;-77
2023/10/03 05:36:25;;;;;;;10.77;5.00;;;;;;;;;;5060520;28;20148;-82
2023/10/03 05:38:50;;;;;;;10.10;4.75;;;;;;;;;;5059532;28;20047;-75
2023/10/03 05:41:23;;;;;;;10.00;4.95;;;;;;;;;;5057588;28;20038;-77
2023/10/03 05:43:49;;;;;;;8.90;5.10;;;;;;;;;;5070953;28;20090;-86
2023/10/03 05:46:14;;;;;;;9.68;5.00;;;;;;;;;;5055939;28;20464;-85
2023/10/03 05:48:40;;;;;;;11.00;4.93;;;;;;;;;;5070472;28;20048;-85
2023/10/03 05:51:05;;;;;;;9.13;4.85;;;;;;;;;;5069451;28;20036;-86
2023/10/03 05:53:31;;;;;;;7.57;4.82;;;;;;;;;;5061725;28;20032;-84
2023/10/03 05:55:57;;;;;;;10.63;5.57;;;;;;;;;;5056221;28;20083;-76
2023/10/03 05:58:23;;;;;;;9.88;5.10;;;;;;;;;;5075532;28;20055;-83
2023/10/03 06:00:49;;;;;;;11.43;5.30;;;;;;;;;;5063693;28;20028;-75
2023/10/03 06:03:15;;;;;;;9.63;5.80;;;;;;;;;;5055800;28;20413;-85
2023/10/03 06:05:41;;;;;;;12.60;5.63;;;;;;;;;;5066046;28;20030;-83
2023/10/03 06:08:07;;;;;;;10.20;5.60;;;;;;;;;;5055846;28;20048;-81
2023/10/03 06:10:33;;;;;;;10.70;6.00;;;;;;;;;;5053323;28;20036;-83
2023/10/03 06:12:59;;;;;;;11.48;5.85;;;;;;;;;;5065831;28;20025;-76
2023/10/03 06:15:24;;;;;;;11.73;5.70;;;;;;;;;;5059026;28;20094;-83
2023/10/03 06:17:52;;;;;;;11.85;5.80;;;;;;;;;;5059277;28;20028;-76
2023/10/03 06:20:18;;;;;;;9.90;5.70;;;;;;;;;;5062525;28;20028;-75
2023/10/03 06:22:43;;;;;;;10.30;5.50;;;;;;;;;;5056812;28;20025;-83
2023/10/03 06:25:09;;;;;;;11.95;5.78;;;;;;;;;;5062433;28;20036;-75
2023/10/03 06:27:35;;;;;;;9.77;5.75;;;;;;;;;;5057430;28;20048;-85
2023/10/03 06:30:01;;;;;;;13.73;5.82;;;;;;;;;;5055301;28;20084;-76
2023/10/03 06:32:26;;;;;;;9.13;5.88;;;;;;;;;;5064030;28;20078;-77
2023/10/03 06:34:52;;;;;;;10.40;6.50;;;;;;;;;;5059321;28;20036;-76
2023/10/03 06:37:17;;;;;;;12.13;7.10;;;;;;;;;;5059222;28;20029;-83
2023/10/03 06:39:43;;;;;;;13.68;6.45;;;;;;;;;;5063045;28;20260;-80
2023/10/03 06:42:08;;;;;;;13.52;6.95;;;;;;;;;;5054306;28;20107;-82
2023/10/03 06:44:36;;;;;;;13.80;6.65;;;;;;;;;;5063772;28;20021;-82
2023/10/03 06:47:03;;;;;;;11.45;6.70;;;;;;;;;;5060284;28;20176;-76
2023/10/03 06:49:29;;;;;;;12.82;7.45;;;;;;;;;;5066110;28;20414;-82
2023/10/03 06:51:57;;;;;;;11.98;6.82;;;;;;;;;;5064089;28;20062;-77
2023/10/03 06:54:24;;;;;;;12.88;7.07;;;;;;;;;;5064595;28;20166;-78
2023/10/03 06:56:50;;;;;;;13.20;7.88;;;;;;;;;;5062098;28;20174;-77
2023/10/03 06:59:16;;;;;;;11.77;7.10;;;;;;;;;;5059256;28;20024;-77
2023/10/03 07:01:41;;;;;;;14.60;7.32;;;;;;;;;;5061118;28;20316;-77
2023/10/03 07:04:07;;;;;;;13.25;7.45;;;;;;;;;;5057020;28;20031;-75
2023/10/03 07:06:33;;;;;;;13.80;7.50;;;;;;;;;;5055549;28;20070;-76
2023/10/03 07:08:59;;;;;;;13.38;7.93;;;;;;;;;;5037385;28;20496;-75
2023/10/03 07:11:24;;;;;;;15.48;8.05;;;;;;;;;;5043205;28;20027;-75
2023/10/03 07:13:51;;;;;;;14.75;8.30;;;;;;;;;;5047028;28;20063;-76
2023/10/03 07:16:16;;;;;;;13.05;8.30;;;;;;;;;;5051156;28;20020;-76
2023/10/03 07:18:43;;;;;;;11.48;6.95;;;;;;;;;;5051914;28;20083;-76
2023/10/03 07:21:09;;;;;;;9.88;6.55;;;;;;;;;;5048757;28;20032;-75
2023/10/03 07:23:35;;;;;;;11.68;7.28;;;;;;;;;;5044027;28;20029;-75
2023/10/03 07:26:00;;;;;;;10.73;6.93;;;;;;;;;;5039491;28;20028;-75
2023/10/03 07:28:25;;;;;;;11.93;6.10;;;;;;;;;;5047733;28;20028;-79
2023/10/03 07:30:51;;;;;;;10.43;5.70;;;;;;;;;;5043153;28;20048;-77
2023/10/03 07:33:16;;;;;;;10.20;6.20;;;;;;;;;;5042238;28;20594;-78
2023/10/03 07:35:44;;;;;;;9.57;5.55;;;;;;;;;;5044654;28;20032;-78
2023/10/03 07:38:10;;;;;;;8.27;5.47;;;;;;;;;;5047549;28;20074;-77
2023/10/03 07:40:39;;;;;;;9.60;5.78;;;;;;;;;;5044648;28;20772;-77
2023/10/03 07:43:12;;;;;;;7.97;5.13;;;;;;;;;;5047850;28;20029;-77
2023/10/03 07:45:38;;;;;;;9.40;4.90;;;;;;;;;;5058992;28;20112;-77
2023/10/03 07:48:09;;;;;;;7.63;4.72;;;;;;;;;;5047000;28;20079;-76
2023/10/03 07:50:37;;;;;;;6.47;4.50;;;;;;;;;;5054771;28;20024;-77
2023/10/03 07:53:04;;;;;;;6.40;4.10;;;;;;;;;;5050659;28;20125;-78
2023/10/03 07:55:35;;;;;;;6.30;4.13;;;;;;;;;;5036149;28;20025;-76
2023/10/03 07:58:00;;;;;;;5.40;3.92;;;;;;;;;;5053892;28;20059;-77
2023/10/03 08:00:26;;;;;;;5.05;3.20;;;;;;;;;;5049559;28;20581;-80
2023/10/03 08:02:52;;;;;;;5.38;3.20;;;;;;;;;;5042605;28;20840;-76
2023/10/03 08:05:17;;;;;;;4.90;3.40;;;;;;;;;;5041047;28;20056;-82
2023/10/03 08:07:49;;;;;;;4.38;3.08;;;;;;;;;;5043616;28;20063;-82
2023/10/03 08:10:16;;;;;;;4.85;3.08;;;;;;;;;;5048424;28;20808;-77
2023/10/03 08:12:41;;;;;;;4.22;2.58;;;;;;;;;;5049222;28;20032;-78
2023/10/03 08:15:19;;;;;;;5.45;2.75;;;;;;;;;;5067782;28;20023;-78
2023/10/03 08:17:49;;;;;;;4.50;2.85;;;;;;;;;;5053165;28;20119;-76
2023/10/03 08:20:16;;;;;;;4.57;2.60;;;;;;;;;;5047590;28;20035;-80
2023/10/03 08:22:42;;;;;;;4.28;2.80;;;;;;;;;;5047308;28;20032;-80
2023/10/03 08:25:11;;;;;;;4.45;2.90;;;;;;;;;;5053474;28;20016;-80
2023/10/03 08:27:36;;;;;;;4.75;3.35;;;;;;;;;;5059585;28;20013;-78
2023/10/03 08:30:03;;;;;;;6.93;3.25;;;;;;;;;;5059228;28;20092;-75
2023/10/03 08:32:31;;;;;;;5.13;3.40;;;;;;;;;;5063958;28;20318;-76
2023/10/03 08:34:57;;;;;;;5.30;3.47;;;;;;;;;;5049832;28;20312;-76
2023/10/03 08:37:22;;;;;;;5.88;3.53;;;;;;;;;;5059740;28;20092;-78
2023/10/03 08:39:51;;;;;;;5.60;3.60;;;;;;;;;;5049226;28;20025;-74
2023/10/03 08:42:37;;;;;;;6.32;3.78;;;;;;;;;;5041236;28;20456;-74
2023/10/03 08:45:16;;;;;;;6.63;4.03;;;;;;;;;;5056356;28;20032;-74
2023/10/03 08:47:47;;;;;;;6.82;4.30;;;;;;;;;;5049574;28;20114;-81
2023/10/03 08:50:29;;;;;;;6.38;4.13;;;;;;;;;;5046775;28;20526;-79
2023/10/03 08:52:56;;;;;;;5.95;4.10;;;;;;;;;;5072424;28;20021;-77
2023/10/03 08:55:26;;;;;;;5.47;3.00;;;;;;;;;;5059559;28;20466;-82
2023/10/03 08:57:52;;;;;;;4.55;2.30;;;;;;;;;;5056151;28;20021;-78
2023/10/03 09:00:25;;;;;;;7.90;2.25;;;;;;;;;;5051591;28;20387;-82
2023/10/03 09:03:09;;;;;;;5.75;2.55;;;;;;;;;;5047681;28;20103;-81
2023/10/03 09:05:39;;;;;;;6.03;2.20;;;;;;;;;;5059024;28;20024;-84
2023/10/03 09:08:08;;;;;;;7.85;2.25;;;;;;;;;;5060316;28;20099;-81
2023/10/03 09:10:34;;;;;;;4.75;1.90;;;;;;;;;;5059398;28;20024;-83
2023/10/03 09:13:04;;;;;;;5.78;2.20;;;;;;;;;;5061666;28;20032;-80
2023/10/03 09:15:37;;;;;;;5.75;2.45;;;;;;;;;;5052337;28;20087;-80
2023/10/03 09:18:15;;;;;;;6.75;2.42;;;;;;;;;;5052852;28;20236;-80
2023/10/03 09:20:42;;;;;;;7.72;2.40;;;;;;;;;;5042586;28;20025;-80
2023/10/03 09:23:08;;;;;;;8.43;2.50;;;;;;;;;;5059222;28;20482;-82
2023/10/03 09:25:35;;;;;;;8.07;2.60;;;;;;;;;;5064239;28;20047;-79
2023/10/03 09:28:05;;;;;;;6.07;2.53;;;;;;;;;;5052960;28;20021;-80
2023/10/03 09:30:37;;;;;;;7.72;2.88;;;;;;;;;;5040262;28;20044;-80
2023/10/03 09:33:08;;;;;;;6.55;2.78;;;;;;;;;;5052200;28;20029;-78
2023/10/03 09:35:34;;;;;;;7.88;2.70;;;;;;;;;;5060833;28;20414;-79
2023/10/03 09:38:05;;;;;;;7.47;2.70;;;;;;;;;;5053162;28;20111;-79
2023/10/03 09:40:51;;;;;;;7.38;2.45;;;;;;;;;;5063005;28;21144;-78
2023/10/03 09:43:16;;;;;;;;;;;;;;;;;;5060023;28;20025;-79
2023/10/03 09:45:47;;;;;;;5.90;2.22;;;;;;;;;;5055051;28;20004;-78
2023/10/03 09:48:13;;;;;;;6.15;2.28;;;;;;;;;;5060249;28;20082;-81
2023/10/03 09:50:51;;;;;;;7.50;2.42;;;;;;;;;;5035125;28;20071;-78
2023/10/03 09:53:18;;;;;;;8.43;2.70;;;;;;;;;;5062925;28;20016;-78
2023/10/03 09:55:46;;;;;;;7.18;2.53;;;;;;;;;;5078360;28;20082;-78
2023/10/03 09:58:13;;;;;;;6.63;2.47;;;;;;;;;;5062676;28;20111;-79
2023/10/03 10:00:49;;;;;;;8.35;2.80;;;;;;;;;;5060130;28;20035;-83
2023/10/03 10:03:19;;;;;;;9.02;2.67;;;;;;;;;;5070597;28;20763;-76
2023/10/03 10:06:12;;;;;;;13.25;3.28;;;;;;;;;;5049955;28;20081;-76
2023/10/03 10:08:41;;;;;;;9.15;2.70;;;;;;;;;;5057268;28;20036;-83
2023/10/03 10:11:09;;;;;;;7.90;2.75;;;;;;;;;;5061982;28;20024;-77
2023/10/03 10:13:44;;;;;;;6.53;2.30;;;;;;;;;;5053409;28;20013;-79
2023/10/03 10:16:20;;;;;;;;;;;;;;;;;;5053930;28;20025;-79
2023/10/03 10:18:45;;;;;;;8.88;2.65;;;;;;;;;;5055693;28;19935;-81
2023/10/03 10:21:23;;;;;;;7.53;2.65;;;;;;;;;;5079598;28;20676;-83
2023/10/03 10:24:16;;;;;;;8.10;2.60;;;;;;;;;;5036495;28;20013;-77
2023/10/03 10:26:48;;;;;;;7.20;2.40;;;;;;;;;;5059147;28;20139;-83
2023/10/03 10:29:19;;;;;;;6.82;2.30;;;;;;;;;;5045951;28;20028;-82
2023/10/03 10:31:57;;;;;;;7.78;2.47;;;;;;;;;;5057430;28;20065;-75
2023/10/03 10:34:27;;;;;;;7.28;2.47;;;;;;;;;;5053639;28;20727;-78
2023/10/03 10:37:22;;;;;;;11.05;2.67;;;;;;;;;;5061951;28;20028;-78
2023/10/03 10:42:59;;;;;;;6.93;2.30;;;;;;;;;;5051011;28;20580;-77
2023/10/03 10:45:25;;;;;;;8.20;2.30;;;;;;;;;;5047834;28;20017;-79
2023/10/03 10:47:51;;;;;;;10.52;2.85;;;;;;;;;;5051208;28;20040;-74
2023/10/03 10:50:21;;;;;;;8.05;2.47;;;;;;;;;;5049651;28;20043;-74
2023/10/03 10:52:56;;;;;;;8.05;2.50;;;;;;;;;;5050520;28;20027;-74
2023/10/03 10:55:25;;;;;;;8.32;2.53;;;;;;;;;;5051693;28;20020;-76
2023/10/03 10:58:09;;;;;;;9.55;2.42;;;;;;;;;;5048830;28;20078;-73
2023/10/03 11:00:35;;;;;;;5.82;2.35;;;;;;;;;;5058050;28;20623;-74
2023/10/03 11:03:02;;;;;;;7.25;2.28;;;;;;;;;;5043224;28;20071;-75
2023/10/03 11:05:47;;;;;;;6.57;2.00;;;;;;;;;;5050814;28;20042;-73
2023/10/03 11:08:13;;;;;;;8.10;2.20;;;;;;;;;;5045580;28;20021;-74
2023/10/03 11:10:53;;;;;;;6.72;2.30;;;;;;;;;;5054434;28;20032;-75
2023/10/03 11:13:22;;;;;;;8.60;2.28;;;;;;;;;;5038589;28;20023;-73
2023/10/03 11:15:48;;;;;;;8.80;2.10;;;;;;;;;;5045612;28;20473;-74
2023/10/03 11:18:15;;;;;;;5.68;1.90;;;;;;;;;;5046300;28;20219;-74
2023/10/03 11:20:40;;;;;;;4.43;1.85;;;;;;;;;;5052393;28;20488;-74
2023/10/03 11:23:15;;;;;;;6.50;2.20;;;;;;;;;;5049845;28;20023;-74
2023/10/03 11:25:52;;;;;;;6.82;2.10;;;;;;;;;;5047924;28;20024;-73
2023/10/03 11:28:18;;;;;;;7.68;2.30;;;;;;;;;;5046774;28;20024;-73
2023/10/03 11:30:43;;;;;;;7.00;2.42;;;;;;;;;;5050873;28;20037;-75
2023/10/03 11:33:09;;;;;;;6.88;2.17;;;;;;;;;;5045781;28;20116;-74
2023/10/03 11:35:35;;;;;;;5.50;2.17;;;;;;;;;;5053694;28;20468;-74
2023/10/03 11:38:05;;;;;;;6.20;2.20;;;;;;;;;;5042918;28;20107;-74
2023/10/03 11:40:31;;;;;;;6.57;2.33;;;;;;;;;;5066395;28;20028;-73
2023/10/03 11:43:02;;;;;;;6.82;2.30;;;;;;;;;;5043457;28;20028;-74
2023/10/03 11:45:32;;;;;;;7.85;2.17;;;;;;;;;;5044218;28;20031;-80
2023/10/03 11:48:19;;;;;;;7.07;2.20;;;;;;;;;;5048702;28;20067;-74
2023/10/03 11:50:45;;;;;;;7.55;2.40;;;;;;;;;;5051223;28;20020;-76
2023/10/03 11:53:12;;;;;;;6.75;2.28;;;;;;;;;;5048561;28;20021;-82
2023/10/03 11:55:40;;;;;;;5.35;2.15;;;;;;;;;;5055413;28;20749;-82
2023/10/03 11:58:06;;;;;;;7.80;2.30;;;;;;;;;;5046259;28;20048;-78
2023/10/03 12:00:33;;;;;;;8.95;2.78;;;;;;;;;;5052941;28;20024;-80
2023/10/03 12:02:59;;;;;;;8.23;2.63;;;;;;;;;;5056714;28;20570;-73
2023/10/03 12:05:27;;;;;;;6.38;2.40;;;;;;;;;;5051777;28;20056;-79
2023/10/03 12:07:56;;;;;;;6.85;2.15;;;;;;;;;;5045112;28;20110;-73
2023/10/03 12:10:24;;;;;;;5.60;2.63;;;;;;;;;;5057996;28;20028;-79
2023/10/03 12:12:50;;;;;;;7.22;2.40;;;;;;;;;;5058895;28;20031;-79
2023/10/03 12:15:16;;;;;;;4.97;2.00;;;;;;;;;;5057291;28;20024;-78
2023/10/03 12:17:46;;;;;;;7.07;2.00;;;;;;;;;;5053771;28;20040;-74
2023/10/03 12:20:13;;;;;;;5.95;2.45;;;;;;;;;;5042948;28;20028;-77
2023/10/03 12:22:41;;;;;;;8.00;2.40;;;;;;;;;;5051398;28;20100;-78
2023/10/03 12:25:10;;;;;;;5.57;2.20;;;;;;;;;;5052695;28;20012;-74
2023/10/03 12:27:37;;;;;;;5.22;2.30;;;;;;;;;;5070813;28;20169;-74
2023/10/03 12:30:04;;;;;;;8.23;2.70;;;;;;;;;;5060907;28;20538;-73
2023/10/03 12:32:34;;;;;;;8.18;2.63;;;;;;;;;;5048787;28;20063;-76
2023/10/03 12:35:00;;;;;;;7.60;2.40;;;;;;;;;;5067712;28;20236;-74
2023/10/03 12:37:26;;;;;;;5.70;2.35;;;;;;;;;;5042008;28;20021;-75
2023/10/03 12:39:51;;;;;;;7.82;2.90;;;;;;;;;;5040077;28;20116;-73
2023/10/03 12:42:17;;;;;;;8.07;2.42;;;;;;;;;;5043775;28;20047;-75
2023/10/03 12:44:42;;;;;;;5.57;2.40;;;;;;;;;;5051229;28;20024;-74
2023/10/03 12:47:08;;;;;;;8.98;2.28;;;;;;;;;;5058964;28;20064;-73
2023/10/03 12:49:33;;;;;;;7.20;2.60;;;;;;;;;;5051239;28;20077;-73
2023/10/03 12:52:00;;;;;;;6.15;2.38;;;;;;;;;;5056723;28;20016;-73
2023/10/03 12:54:26;;;;;;;10.52;2.60;;;;;;;;;;5051136;28;20225;-73
2023/10/03 12:56:52;;;;;;;5.63;2.60;;;;;;;;;;5046794;28;20021;-73
2023/10/03 12:59:18;;;;;;;6.18;2.33;;;;;;;;;;5037640;28;20031;-73
2023/10/03 13:01:45;;;;;;;6.32;2.45;;;;;;;;;;5039648;28;20021;-72
2023/10/03 13:04:11;;;;;;;7.97;2.38;;;;;;;;;;5042307;28;20028;-73
2023/10/03 13:06:36;;;;;;;5.60;2.22;;;;;;;;;;5051606;28;20039;-73
2023/10/03 13:09:02;;;;;;;7.75;2.72;;;;;;;;;;5052904;28;20540;-73
2023/10/03 13:11:28;;;;;;;8.35;2.40;;;;;;;;;;5043226;28;20033;-73
2023/10/03 13:13:54;;;;;;;8.27;2.35;;;;;;;;;;5033108;28;20036;-74
2023/10/03 13:16:21;;;;;;;5.70;2.30;;;;;;;;;;5056075;28;20035;-72
2023/10/03 13:18:47;;;;;;;7.85;2.22;;;;;;;;;;5054475;28;20027;-73
2023/10/03 13:21:13;;;;;;;6.88;2.47;;;;;;;;;;5041396;28;20459;-73
2023/10/03 13:23:39;;;;;;;5.82;2.53;;;;;;;;;;5048522;28;20031;-74
2023/10/03 13:26:05;;;;;;;6.97;2.30;;;;;;;;;;5040128;28;20027;-73
2023/10/03 13:28:30;;;;;;;6.00;2.20;;;;;;;;;;5051224;28;20024;-73
2023/10/03 13:30:56;;;;;;;4.95;2.00;;;;;;;;;;5049851;28;20056;-74
2023/10/03 13:33:22;;;;;;;4.40;1.88;;;;;;;;;;5048042;28;20104;-73
2023/10/03 13:35:47;;;;;;;4.93;1.80;;;;;;;;;;5045546;28;20029;-73
2023/10/03 13:38:13;;;;;;;3.22;1.50;;;;;;;;;;5044703;28;20028;-73
2023/10/03 13:40:38;;;;;;;3.35;1.52;;;;;;;;;;5050041;28;20055;-73
2023/10/03 13:43:05;;;;;;;4.53;1.60;;;;;;;;;;5037024;28;20031;-73
2023/10/03 13:45:30;;;;;;;3.38;1.70;;;;;;;;;;5039681;28;20028;-73
2023/10/03 13:47:56;;;;;;;5.88;1.70;;;;;;;;;;5043501;28;20044;-73
2023/10/03 13:50:22;;;;;;;4.88;1.83;;;;;;;;;;5051912;28;20056;-74
2023/10/03 13:52:50;;;;;;;5.03;1.90;;;;;;;;;;5052849;28;20027;-73
2023/10/03 13:55:18;;;;;;;4.25;1.70;;;;;;;;;;5052694;28;20020;-74
2023/10/03 13:57:44;;;;;;;5.32;1.80;;;;;;;;;;5037728;28;20032;-73
2023/10/03 14:00:14;;;;;;;4.15;1.73;;;;;;;;;;5043963;28;20031;-73
2023/10/03 14:02:39;;;;;;;3.90;1.70;;;;;;;;;;5051240;28;20019;-73
2023/10/03 14:05:07;;;;;;;4.93;2.03;;;;;;;;;;5045739;28;20037;-73
2023/10/03 14:07:33;;;;;;;5.57;2.00;;;;;;;;;;5046397;28;20025;-74
2023/10/03 14:10:00;;;;;;;3.97;1.80;;;;;;;;;;5048164;28;20382;-73
2023/10/03 14:12:26;;;;;;;3.95;1.80;;;;;;;;;;5050260;28;20578;-73
2023/10/03 14:14:52;;;;;;;5.38;2.20;;;;;;;;;;5039615;28;20025;-73
2023/10/03 14:17:17;;;;;;;4.10;1.80;;;;;;;;;;5047809;28;20183;-73
2023/10/03 14:19:43;;;;;;;4.43;1.70;;;;;;;;;;5055768;28;20021;-73
2023/10/03 14:22:08;;;;;;;3.83;1.88;;;;;;;;;;5052088;28;20033;-73
2023/10/03 14:24:33;;;;;;;4.80;1.90;;;;;;;;;;5049030;28;20058;-74
2023/10/03 14:26:59;;;;;;;7.05;2.10;;;;;;;;;;5066824;28;20029;-73
2023/10/03 14:29:24;;;;;;;5.40;2.20;;;;;;;;;;5050925;28;20012;-73
2023/10/03 14:31:50;;;;;;;7.32;2.13;;;;;;;;;;5055705;28;20058;-73
2023/10/03 14:34:16;;;;;;;5.05;2.00;;;;;;;;;;5053071;28;20097;-74
2023/10/03 14:36:45;;;;;;;5.45;2.20;;;;;;;;;;5054797;28;20099;-75
2023/10/03 14:39:19;;;;;;;4.45;1.90;;;;;;;;;;5055759;28;20102;-75
2023/10/03 14:41:46;;;;;;;6.72;2.13;;;;;;;;;;5059166;28;20090;-76
2023/10/03 14:44:12;;;;;;;6.22;2.15;;;;;;;;;;5049771;28;21184;-75
2023/10/03 14:46:37;;;;;;;7.82;2.10;;;;;;;;;;5052145;28;20330;-75
2023/10/03 14:49:03;;;;;;;7.32;2.20;;;;;;;;;;5044393;28;20048;-75
2023/10/03 14:51:30;;;;;;;5.35;2.17;;;;;;;;;;5052052;28;20523;-75
2023/10/03 14:53:56;;;;;;;6.57;2.80;;;;;;;;;;5048597;28;20799;-75
2023/10/03 14:56:21;;;;;;;5.85;2.30;;;;;;;;;;5051975;28;20113;-76